sensor_id;sensor_type;location;lat;lon;timestamp;temperature;humidity
12254;DHT22;6189;52.526;13.390;2022-12-11T00:02:46;1.10;99.90
12254;DHT22;6189;52.526;13.390;2022-12-11T00:05:33;1.00;99.90
12254;DHT22;6189;52.526;13.390;2022-12-11T00:08:19;0.90;99.90
12254;DHT22;6189;52.526;13.390;2022-12-11T00:11:07;0.80;99.90
12254;DHT22;6189;52.526;13.390;2022-12-11T00:13:52;0.90;99.90
12254;DHT22;6189;52.526;13.390;2022-12-11T00:16:38;0.90;99.90
12254;DHT22;6189;52.526;13.390;2022-12-11T00:19:24;0.90;99.90
12254;DHT22;6189;52.526;13.390;2022-12-11T00:22:11;1.10;99.90
12254;DHT22;6189;52.526;13.390;2022-12-11T00:24:56;1.10;99.90
12254;DHT22;6189;52.526;13.390;2022-12-11T00:27:44;1.10;99.90
12254;DHT22;6189;52.526;13.390;2022-12-11T00:30:30;1.20;99.90
12254;DHT22;6189;52.526;13.390;2022-12-11T00:33:16;1.30;99.90
12254;DHT22;6189;52.526;13.390;2022-12-11T00:36:02;1.20;99.90
12254;DHT22;6189;52.526;13.390;2022-12-11T00:38:49;1.10;99.90
12254;DHT22;6189;52.526;13.390;2022-12-11T00:41:35;1.20;99.90
12254;DHT22;6189;52.526;13.390;2022-12-11T00:44:21;1.20;99.90
12254;DHT22;6189;52.526;13.390;2022-12-11T00:47:07;1.30;99.90
12254;DHT22;6189;52.526;13.390;2022-12-11T00:49:52;1.30;99.90
12254;DHT22;6189;52.526;13.390;2022-12-11T00:52:38;1.30;99.90
12254;DHT22;6189;52.526;13.390;2022-12-11T00:55:25;1.20;99.90
12254;DHT22;6189;52.526;13.390;2022-12-11T00:58:11;1.20;99.90
12254;DHT22;6189;52.526;13.390;2022-12-11T01:01:05;1.30;99.90
12254;DHT22;6189;52.526;13.390;2022-12-11T01:03:51;1.10;99.90
12254;DHT22;6189;52.526;13.390;2022-12-11T01:06:38;1.00;99.90
12254;DHT22;6189;52.526;13.390;2022-12-11T01:09:23;1.00;99.90
12254;DHT22;6189;52.526;13.390;2022-12-11T01:12:30;0.90;99.90
12254;DHT22;6189;52.526;13.390;2022-12-11T01:15:15;0.90;99.90
12254;DHT22;6189;52.526;13.390;2022-12-11T01:18:01;1.00;99.90
12254;DHT22;6189;52.526;13.390;2022-12-11T01:20:46;1.00;99.90
12254;DHT22;6189;52.526;13.390;2022-12-11T01:23:32;1.10;99.90
12254;DHT22;6189;52.526;13.390;2022-12-11T01:26:18;1.10;99.90
12254;DHT22;6189;52.526;13.390;2022-12-11T01:29:05;1.20;99.90
12254;DHT22;6189;52.526;13.390;2022-12-11T01:31:51;0.90;99.90
12254;DHT22;6189;52.526;13.390;2022-12-11T01:34:36;1.00;99.90
12254;DHT22;6189;52.526;13.390;2022-12-11T01:37:22;1.00;99.90
12254;DHT22;6189;52.526;13.390;2022-12-11T01:40:10;1.10;99.90
12254;DHT22;6189;52.526;13.390;2022-12-11T01:42:57;1.20;99.90
12254;DHT22;6189;52.526;13.390;2022-12-11T01:45:44;1.20;99.90
12254;DHT22;6189;52.526;13.390;2022-12-11T01:48:31;1.30;99.90
12254;DHT22;6189;52.526;13.390;2022-12-11T01:51:17;1.30;99.90
12254;DHT22;6189;52.526;13.390;2022-12-11T01:54:05;1.30;99.90
12254;DHT22;6189;52.526;13.390;2022-12-11T01:56:53;1.10;99.90
12254;DHT22;6189;52.526;13.390;2022-12-11T01:59:42;1.10;99.90
12254;DHT22;6189;52.526;13.390;2022-12-11T02:02:30;1.20;99.90
12254;DHT22;6189;52.526;13.390;2022-12-11T02:05:16;1.20;99.90
12254;DHT22;6189;52.526;13.390;2022-12-11T02:08:03;1.10;99.90
12254;DHT22;6189;52.526;13.390;2022-12-11T02:10:58;1.10;99.90
12254;DHT22;6189;52.526;13.390;2022-12-11T02:13:50;1.10;99.90
12254;DHT22;6189;52.526;13.390;2022-12-11T02:16:42;1.10;99.90
12254;DHT22;6189;52.526;13.390;2022-12-11T02:19:48;1.10;99.90
12254;DHT22;6189;52.526;13.390;2022-12-11T02:22:57;1.20;99.90
12254;DHT22;6189;52.526;13.390;2022-12-11T02:25:51;1.20;99.90
12254;DHT22;6189;52.526;13.390;2022-12-11T02:28:43;1.30;99.90
12254;DHT22;6189;52.526;13.390;2022-12-11T02:31:34;1.30;99.90
12254;DHT22;6189;52.526;13.390;2022-12-11T02:34:25;1.10;99.90
12254;DHT22;6189;52.526;13.390;2022-12-11T02:37:17;1.30;99.90
12254;DHT22;6189;52.526;13.390;2022-12-11T02:40:06;1.30;99.90
12254;DHT22;6189;52.526;13.390;2022-12-11T02:42:56;1.30;99.90
12254;DHT22;6189;52.526;13.390;2022-12-11T02:45:45;1.20;99.90
12254;DHT22;6189;52.526;13.390;2022-12-11T02:48:31;1.20;99.90
12254;DHT22;6189;52.526;13.390;2022-12-11T02:51:22;1.30;99.90
12254;DHT22;6189;52.526;13.390;2022-12-11T02:54:13;1.30;99.90
12254;DHT22;6189;52.526;13.390;2022-12-11T02:57:03;1.30;99.90
12254;DHT22;6189;52.526;13.390;2022-12-11T02:59:50;1.30;99.90
12254;DHT22;6189;52.526;13.390;2022-12-11T03:02:38;1.30;99.90
12254;DHT22;6189;52.526;13.390;2022-12-11T03:05:25;1.40;99.90
12254;DHT22;6189;52.526;13.390;2022-12-11T03:08:11;1.40;99.90
12254;DHT22;6189;52.526;13.390;2022-12-11T03:11:01;1.30;99.90
12254;DHT22;6189;52.526;13.390;2022-12-11T03:13:47;1.20;99.90
12254;DHT22;6189;52.526;13.390;2022-12-11T03:16:34;1.20;99.90
12254;DHT22;6189;52.526;13.390;2022-12-11T03:19:27;1.10;99.90
12254;DHT22;6189;52.526;13.390;2022-12-11T03:22:19;1.10;99.90
12254;DHT22;6189;52.526;13.390;2022-12-11T03:25:09;1.10;99.90
12254;DHT22;6189;52.526;13.390;2022-12-11T03:27:57;1.20;99.90
12254;DHT22;6189;52.526;13.390;2022-12-11T03:30:44;1.20;99.90
12254;DHT22;6189;52.526;13.390;2022-12-11T03:33:33;1.20;99.90
12254;DHT22;6189;52.526;13.390;2022-12-11T03:36:24;1.30;99.90
12254;DHT22;6189;52.526;13.390;2022-12-11T03:39:14;1.20;99.90
12254;DHT22;6189;52.526;13.390;2022-12-11T03:42:04;1.20;99.90
12254;DHT22;6189;52.526;13.390;2022-12-11T03:44:52;1.10;99.90
12254;DHT22;6189;52.526;13.390;2022-12-11T03:47:40;1.00;99.90
12254;DHT22;6189;52.526;13.390;2022-12-11T03:50:30;1.20;99.90
12254;DHT22;6189;52.526;13.390;2022-12-11T03:53:18;1.00;99.90
12254;DHT22;6189;52.526;13.390;2022-12-11T03:56:06;1.00;99.90
12254;DHT22;6189;52.526;13.390;2022-12-11T03:58:53;0.90;99.90
12254;DHT22;6189;52.526;13.390;2022-12-11T04:01:38;0.90;99.90
12254;DHT22;6189;52.526;13.390;2022-12-11T04:04:24;0.90;99.90
12254;DHT22;6189;52.526;13.390;2022-12-11T04:07:09;0.80;99.90
12254;DHT22;6189;52.526;13.390;2022-12-11T04:09:56;0.70;99.90
12254;DHT22;6189;52.526;13.390;2022-12-11T04:12:42;0.70;99.90
12254;DHT22;6189;52.526;13.390;2022-12-11T04:15:28;0.70;99.90
12254;DHT22;6189;52.526;13.390;2022-12-11T04:18:13;0.70;99.90
12254;DHT22;6189;52.526;13.390;2022-12-11T04:21:17;0.80;99.90
12254;DHT22;6189;52.526;13.390;2022-12-11T04:24:20;0.80;99.90
12254;DHT22;6189;52.526;13.390;2022-12-11T04:27:08;0.90;99.90
12254;DHT22;6189;52.526;13.390;2022-12-11T04:29:53;0.80;99.90
12254;DHT22;6189;52.526;13.390;2022-12-11T04:32:39;0.80;99.90
12254;DHT22;6189;52.526;13.390;2022-12-11T04:35:25;0.70;99.90
12254;DHT22;6189;52.526;13.390;2022-12-11T04:38:10;0.60;99.90
12254;DHT22;6189;52.526;13.390;2022-12-11T04:40:57;0.70;99.90
12254;DHT22;6189;52.526;13.390;2022-12-11T04:43:44;0.60;99.90
12254;DHT22;6189;52.526;13.390;2022-12-11T04:46:30;0.60;99.90
12254;DHT22;6189;52.526;13.390;2022-12-11T04:49:16;0.60;99.90
12254;DHT22;6189;52.526;13.390;2022-12-11T04:52:02;0.80;99.90
12254;DHT22;6189;52.526;13.390;2022-12-11T04:54:47;0.80;99.90
12254;DHT22;6189;52.526;13.390;2022-12-11T04:57:34;0.80;99.90
12254;DHT22;6189;52.526;13.390;2022-12-11T05:00:21;0.70;99.90
12254;DHT22;6189;52.526;13.390;2022-12-11T05:03:07;0.60;99.90
12254;DHT22;6189;52.526;13.390;2022-12-11T05:05:53;0.60;99.90
12254;DHT22;6189;52.526;13.390;2022-12-11T05:08:39;0.70;99.90
12254;DHT22;6189;52.526;13.390;2022-12-11T05:11:25;0.60;99.90
12254;DHT22;6189;52.526;13.390;2022-12-11T05:14:11;0.60;99.90
12254;DHT22;6189;52.526;13.390;2022-12-11T05:16:58;0.70;99.90
12254;DHT22;6189;52.526;13.390;2022-12-11T05:19:46;0.60;99.90
12254;DHT22;6189;52.526;13.390;2022-12-11T05:22:32;0.60;99.90
12254;DHT22;6189;52.526;13.390;2022-12-11T05:25:17;0.70;99.90
12254;DHT22;6189;52.526;13.390;2022-12-11T05:28:03;0.70;99.90
12254;DHT22;6189;52.526;13.390;2022-12-11T05:30:54;0.60;99.90
12254;DHT22;6189;52.526;13.390;2022-12-11T05:33:41;0.70;99.90
12254;DHT22;6189;52.526;13.390;2022-12-11T05:36:29;0.60;99.90
12254;DHT22;6189;52.526;13.390;2022-12-11T05:39:15;0.80;99.90
12254;DHT22;6189;52.526;13.390;2022-12-11T05:42:00;0.60;99.90
12254;DHT22;6189;52.526;13.390;2022-12-11T05:44:48;0.70;99.90
12254;DHT22;6189;52.526;13.390;2022-12-11T05:47:34;0.70;99.90
12254;DHT22;6189;52.526;13.390;2022-12-11T05:50:21;0.70;99.90
12254;DHT22;6189;52.526;13.390;2022-12-11T05:53:06;0.60;99.90
12254;DHT22;6189;52.526;13.390;2022-12-11T05:55:52;0.60;99.90
12254;DHT22;6189;52.526;13.390;2022-12-11T05:58:38;0.70;99.90
12254;DHT22;6189;52.526;13.390;2022-12-11T06:01:26;0.90;99.90
12254;DHT22;6189;52.526;13.390;2022-12-11T06:04:12;0.90;99.90
12254;DHT22;6189;52.526;13.390;2022-12-11T06:06:59;0.90;99.90
12254;DHT22;6189;52.526;13.390;2022-12-11T06:09:44;0.90;99.90
12254;DHT22;6189;52.526;13.390;2022-12-11T06:12:30;1.00;99.90
12254;DHT22;6189;52.526;13.390;2022-12-11T06:15:15;1.00;99.90
12254;DHT22;6189;52.526;13.390;2022-12-11T06:18:01;1.10;99.90
12254;DHT22;6189;52.526;13.390;2022-12-11T06:20:46;1.10;99.90
12254;DHT22;6189;52.526;13.390;2022-12-11T06:23:33;1.10;99.90
12254;DHT22;6189;52.526;13.390;2022-12-11T06:26:20;0.80;99.90
12254;DHT22;6189;52.526;13.390;2022-12-11T06:29:05;0.70;99.90
12254;DHT22;6189;52.526;13.390;2022-12-11T06:31:51;0.70;99.90
12254;DHT22;6189;52.526;13.390;2022-12-11T06:34:36;0.80;99.90
12254;DHT22;6189;52.526;13.390;2022-12-11T06:37:23;0.80;99.90
12254;DHT22;6189;52.526;13.390;2022-12-11T06:40:10;0.70;99.90
12254;DHT22;6189;52.526;13.390;2022-12-11T06:42:56;0.70;99.90
12254;DHT22;6189;52.526;13.390;2022-12-11T06:45:41;0.60;99.90
12254;DHT22;6189;52.526;13.390;2022-12-11T06:48:27;0.60;99.90
12254;DHT22;6189;52.526;13.390;2022-12-11T06:51:14;0.70;99.90
12254;DHT22;6189;52.526;13.390;2022-12-11T06:54:00;0.70;99.90
12254;DHT22;6189;52.526;13.390;2022-12-11T06:56:47;0.60;99.90
12254;DHT22;6189;52.526;13.390;2022-12-11T06:59:32;0.60;99.90
12254;DHT22;6189;52.526;13.390;2022-12-11T07:02:19;0.70;99.90
12254;DHT22;6189;52.526;13.390;2022-12-11T07:05:06;0.70;99.90
12254;DHT22;6189;52.526;13.390;2022-12-11T07:07:52;0.80;99.90
12254;DHT22;6189;52.526;13.390;2022-12-11T07:10:38;0.70;99.90
12254;DHT22;6189;52.526;13.390;2022-12-11T07:13:26;0.60;99.90
12254;DHT22;6189;52.526;13.390;2022-12-11T07:16:13;0.50;99.90
12254;DHT22;6189;52.526;13.390;2022-12-11T07:18:59;0.60;99.90
12254;DHT22;6189;52.526;13.390;2022-12-11T07:21:45;0.70;99.90
12254;DHT22;6189;52.526;13.390;2022-12-11T07:24:30;1.10;99.90
12254;DHT22;6189;52.526;13.390;2022-12-11T07:27:16;1.10;99.90
12254;DHT22;6189;52.526;13.390;2022-12-11T07:30:04;1.10;99.90
12254;DHT22;6189;52.526;13.390;2022-12-11T07:32:49;1.00;99.90
12254;DHT22;6189;52.526;13.390;2022-12-11T07:35:35;0.80;99.90
12254;DHT22;6189;52.526;13.390;2022-12-11T07:38:21;0.70;99.90
12254;DHT22;6189;52.526;13.390;2022-12-11T07:41:09;0.50;99.90
12254;DHT22;6189;52.526;13.390;2022-12-11T07:43:55;0.50;99.90
12254;DHT22;6189;52.526;13.390;2022-12-11T07:46:42;0.60;99.90
12254;DHT22;6189;52.526;13.390;2022-12-11T07:49:27;0.70;99.90
12254;DHT22;6189;52.526;13.390;2022-12-11T07:52:13;0.70;99.90
12254;DHT22;6189;52.526;13.390;2022-12-11T07:54:58;0.70;99.90
12254;DHT22;6189;52.526;13.390;2022-12-11T07:57:44;0.70;99.90
12254;DHT22;6189;52.526;13.390;2022-12-11T08:00:30;0.60;99.90
12254;DHT22;6189;52.526;13.390;2022-12-11T08:03:17;0.80;99.90
12254;DHT22;6189;52.526;13.390;2022-12-11T08:06:03;0.70;99.90
12254;DHT22;6189;52.526;13.390;2022-12-11T08:08:49;0.70;99.90
12254;DHT22;6189;52.526;13.390;2022-12-11T08:11:35;0.60;99.90
12254;DHT22;6189;52.526;13.390;2022-12-11T08:14:21;0.40;99.90
12254;DHT22;6189;52.526;13.390;2022-12-11T08:17:07;0.30;99.90
12254;DHT22;6189;52.526;13.390;2022-12-11T08:19:55;0.30;99.90
12254;DHT22;6189;52.526;13.390;2022-12-11T08:22:41;0.20;99.90
12254;DHT22;6189;52.526;13.390;2022-12-11T08:25:26;0.40;99.90
12254;DHT22;6189;52.526;13.390;2022-12-11T08:28:12;0.50;99.90
12254;DHT22;6189;52.526;13.390;2022-12-11T08:30:58;0.70;99.90
12254;DHT22;6189;52.526;13.390;2022-12-11T08:33:44;0.80;99.90
12254;DHT22;6189;52.526;13.390;2022-12-11T08:36:30;0.80;99.90
12254;DHT22;6189;52.526;13.390;2022-12-11T08:39:16;0.90;99.90
12254;DHT22;6189;52.526;13.390;2022-12-11T08:42:02;0.90;99.90
12254;DHT22;6189;52.526;13.390;2022-12-11T08:44:48;0.90;99.90
12254;DHT22;6189;52.526;13.390;2022-12-11T08:47:33;0.90;99.90
12254;DHT22;6189;52.526;13.390;2022-12-11T08:50:19;0.70;99.90
12254;DHT22;6189;52.526;13.390;2022-12-11T08:53:06;0.60;99.90
12254;DHT22;6189;52.526;13.390;2022-12-11T08:55:51;0.50;99.90
12254;DHT22;6189;52.526;13.390;2022-12-11T08:58:39;0.50;99.90
12254;DHT22;6189;52.526;13.390;2022-12-11T09:01:25;0.60;99.90
12254;DHT22;6189;52.526;13.390;2022-12-11T09:04:11;0.60;99.90
12254;DHT22;6189;52.526;13.390;2022-12-11T09:06:57;0.60;99.90
12254;DHT22;6189;52.526;13.390;2022-12-11T09:09:44;0.60;99.90
12254;DHT22;6189;52.526;13.390;2022-12-11T09:12:30;0.70;99.90
12254;DHT22;6189;52.526;13.390;2022-12-11T09:15:16;0.60;99.90
12254;DHT22;6189;52.526;13.390;2022-12-11T09:18:02;0.80;99.90
12254;DHT22;6189;52.526;13.390;2022-12-11T09:20:48;0.60;99.90
12254;DHT22;6189;52.526;13.390;2022-12-11T09:23:42;0.80;99.90
12254;DHT22;6189;52.526;13.390;2022-12-11T09:26:29;0.80;99.90
12254;DHT22;6189;52.526;13.390;2022-12-11T09:29:14;0.80;99.90
12254;DHT22;6189;52.526;13.390;2022-12-11T09:32:00;0.70;99.90
12254;DHT22;6189;52.526;13.390;2022-12-11T09:34:49;0.60;99.90
12254;DHT22;6189;52.526;13.390;2022-12-11T09:37:34;0.60;99.90
12254;DHT22;6189;52.526;13.390;2022-12-11T09:40:20;0.60;99.90
12254;DHT22;6189;52.526;13.390;2022-12-11T09:43:17;0.60;99.90
12254;DHT22;6189;52.526;13.390;2022-12-11T09:46:08;0.50;99.90
12254;DHT22;6189;52.526;13.390;2022-12-11T09:48:57;0.40;99.90
12254;DHT22;6189;52.526;13.390;2022-12-11T09:51:45;0.50;99.90
12254;DHT22;6189;52.526;13.390;2022-12-11T09:54:32;0.50;99.90
12254;DHT22;6189;52.526;13.390;2022-12-11T09:57:27;0.60;99.90
12254;DHT22;6189;52.526;13.390;2022-12-11T10:00:25;0.70;99.90
12254;DHT22;6189;52.526;13.390;2022-12-11T10:06:43;0.60;99.90
12254;DHT22;6189;52.526;13.390;2022-12-11T10:09:37;0.70;99.90
12254;DHT22;6189;52.526;13.390;2022-12-11T10:12:36;0.60;99.90
12254;DHT22;6189;52.526;13.390;2022-12-11T10:15:34;0.60;99.90
12254;DHT22;6189;52.526;13.390;2022-12-11T10:18:23;0.60;99.90
12254;DHT22;6189;52.526;13.390;2022-12-11T10:21:11;0.60;99.90
12254;DHT22;6189;52.526;13.390;2022-12-11T10:23:59;0.60;99.90
12254;DHT22;6189;52.526;13.390;2022-12-11T10:26:46;0.60;99.90
12254;DHT22;6189;52.526;13.390;2022-12-11T10:29:31;0.70;99.90
12254;DHT22;6189;52.526;13.390;2022-12-11T10:32:21;0.80;99.90
12254;DHT22;6189;52.526;13.390;2022-12-11T10:35:17;0.70;99.90
12254;DHT22;6189;52.526;13.390;2022-12-11T10:38:12;0.50;99.90
12254;DHT22;6189;52.526;13.390;2022-12-11T10:41:00;0.50;99.90
12254;DHT22;6189;52.526;13.390;2022-12-11T10:43:48;0.50;99.90
12254;DHT22;6189;52.526;13.390;2022-12-11T10:46:34;0.50;99.90
12254;DHT22;6189;52.526;13.390;2022-12-11T10:49:23;0.50;99.90
12254;DHT22;6189;52.526;13.390;2022-12-11T10:52:10;0.50;99.90
12254;DHT22;6189;52.526;13.390;2022-12-11T10:54:59;0.50;99.90
12254;DHT22;6189;52.526;13.390;2022-12-11T10:57:53;0.60;99.90
12254;DHT22;6189;52.526;13.390;2022-12-11T11:00:40;0.80;99.90
12254;DHT22;6189;52.526;13.390;2022-12-11T11:03:26;0.70;99.90
12254;DHT22;6189;52.526;13.390;2022-12-11T11:06:17;0.60;99.90
12254;DHT22;6189;52.526;13.390;2022-12-11T11:09:27;0.70;99.90
12254;DHT22;6189;52.526;13.390;2022-12-11T11:12:18;0.70;99.90
12254;DHT22;6189;52.526;13.390;2022-12-11T11:15:06;0.70;99.90
12254;DHT22;6189;52.526;13.390;2022-12-11T11:17:56;0.80;99.90
12254;DHT22;6189;52.526;13.390;2022-12-11T11:20:46;0.70;99.90
12254;DHT22;6189;52.526;13.390;2022-12-11T11:23:33;0.70;99.90
12254;DHT22;6189;52.526;13.390;2022-12-11T11:26:19;0.80;99.90
12254;DHT22;6189;52.526;13.390;2022-12-11T11:29:22;0.90;99.90
12254;DHT22;6189;52.526;13.390;2022-12-11T11:32:16;0.80;99.90
12254;DHT22;6189;52.526;13.390;2022-12-11T11:35:18;0.60;99.90
12254;DHT22;6189;52.526;13.390;2022-12-11T11:38:15;0.70;99.90
12254;DHT22;6189;52.526;13.390;2022-12-11T11:41:10;0.70;99.90
12254;DHT22;6189;52.526;13.390;2022-12-11T11:43:59;0.80;99.90
12254;DHT22;6189;52.526;13.390;2022-12-11T11:46:51;0.80;99.90
12254;DHT22;6189;52.526;13.390;2022-12-11T11:49:48;0.80;99.90
12254;DHT22;6189;52.526;13.390;2022-12-11T11:52:39;0.90;99.90
12254;DHT22;6189;52.526;13.390;2022-12-11T11:55:36;1.00;99.90
12254;DHT22;6189;52.526;13.390;2022-12-11T11:58:25;1.00;99.90
12254;DHT22;6189;52.526;13.390;2022-12-11T12:01:14;0.90;99.90
12254;DHT22;6189;52.526;13.390;2022-12-11T12:04:02;0.90;99.90
12254;DHT22;6189;52.526;13.390;2022-12-11T12:07:07;0.90;99.90
12254;DHT22;6189;52.526;13.390;2022-12-11T12:10:01;0.80;99.90
12254;DHT22;6189;52.526;13.390;2022-12-11T12:12:55;0.80;99.90
12254;DHT22;6189;52.526;13.390;2022-12-11T12:15:49;0.60;99.90
12254;DHT22;6189;52.526;13.390;2022-12-11T12:18:40;0.70;99.90
12254;DHT22;6189;52.526;13.390;2022-12-11T12:21:34;0.80;99.90
12254;DHT22;6189;52.526;13.390;2022-12-11T12:24:28;0.80;99.90
12254;DHT22;6189;52.526;13.390;2022-12-11T12:27:25;0.70;99.90
12254;DHT22;6189;52.526;13.390;2022-12-11T12:30:16;0.80;99.90
12254;DHT22;6189;52.526;13.390;2022-12-11T12:33:13;0.90;99.90
12254;DHT22;6189;52.526;13.390;2022-12-11T12:36:08;0.80;99.90
12254;DHT22;6189;52.526;13.390;2022-12-11T12:39:00;0.90;99.90
12254;DHT22;6189;52.526;13.390;2022-12-11T12:41:53;0.80;99.90
12254;DHT22;6189;52.526;13.390;2022-12-11T12:44:48;0.80;99.90
12254;DHT22;6189;52.526;13.390;2022-12-11T12:47:37;0.90;99.90
12254;DHT22;6189;52.526;13.390;2022-12-11T12:50:37;1.00;99.90
12254;DHT22;6189;52.526;13.390;2022-12-11T12:53:27;0.90;99.90
12254;DHT22;6189;52.526;13.390;2022-12-11T12:56:15;0.90;99.90
12254;DHT22;6189;52.526;13.390;2022-12-11T12:59:01;0.90;99.90
12254;DHT22;6189;52.526;13.390;2022-12-11T13:01:49;0.90;99.90
12254;DHT22;6189;52.526;13.390;2022-12-11T13:04:40;0.90;99.90
12254;DHT22;6189;52.526;13.390;2022-12-11T13:07:30;1.10;99.90
12254;DHT22;6189;52.526;13.390;2022-12-11T13:10:26;1.00;99.90
12254;DHT22;6189;52.526;13.390;2022-12-11T13:13:33;1.00;99.90
12254;DHT22;6189;52.526;13.390;2022-12-11T13:16:26;1.10;99.90
12254;DHT22;6189;52.526;13.390;2022-12-11T13:19:33;1.10;99.90
12254;DHT22;6189;52.526;13.390;2022-12-11T13:22:22;1.00;99.90
12254;DHT22;6189;52.526;13.390;2022-12-11T13:25:23;1.10;99.90
12254;DHT22;6189;52.526;13.390;2022-12-11T13:31:31;1.10;99.90
12254;DHT22;6189;52.526;13.390;2022-12-11T13:34:21;1.10;99.90
12254;DHT22;6189;52.526;13.390;2022-12-11T13:37:21;1.10;99.90
12254;DHT22;6189;52.526;13.390;2022-12-11T13:40:17;1.10;99.90
12254;DHT22;6189;52.526;13.390;2022-12-11T13:43:06;1.00;99.90
12254;DHT22;6189;52.526;13.390;2022-12-11T13:45:55;1.00;99.90
12254;DHT22;6189;52.526;13.390;2022-12-11T13:48:45;1.10;99.90
12254;DHT22;6189;52.526;13.390;2022-12-11T13:51:33;1.10;99.90
12254;DHT22;6189;52.526;13.390;2022-12-11T13:54:20;1.20;99.90
12254;DHT22;6189;52.526;13.390;2022-12-11T13:57:15;1.20;99.90
12254;DHT22;6189;52.526;13.390;2022-12-11T14:00:01;1.10;99.90
12254;DHT22;6189;52.526;13.390;2022-12-11T14:02:47;1.20;99.90
12254;DHT22;6189;52.526;13.390;2022-12-11T14:05:33;1.20;99.90
12254;DHT22;6189;52.526;13.390;2022-12-11T14:08:22;1.20;99.90
12254;DHT22;6189;52.526;13.390;2022-12-11T14:11:20;1.20;99.90
12254;DHT22;6189;52.526;13.390;2022-12-11T14:14:17;1.20;99.90
12254;DHT22;6189;52.526;13.390;2022-12-11T14:17:04;1.20;99.90
12254;DHT22;6189;52.526;13.390;2022-12-11T14:19:49;1.20;99.90
12254;DHT22;6189;52.526;13.390;2022-12-11T14:22:35;1.20;99.90
12254;DHT22;6189;52.526;13.390;2022-12-11T14:25:23;1.30;99.90
12254;DHT22;6189;52.526;13.390;2022-12-11T14:28:14;1.10;99.90
12254;DHT22;6189;52.526;13.390;2022-12-11T14:31:03;1.20;99.90
12254;DHT22;6189;52.526;13.390;2022-12-11T14:33:52;1.20;99.90
12254;DHT22;6189;52.526;13.390;2022-12-11T14:36:40;1.20;99.90
12254;DHT22;6189;52.526;13.390;2022-12-11T14:39:29;1.10;99.90
12254;DHT22;6189;52.526;13.390;2022-12-11T14:42:18;1.10;99.90
12254;DHT22;6189;52.526;13.390;2022-12-11T14:45:07;1.10;99.90
12254;DHT22;6189;52.526;13.390;2022-12-11T14:47:59;1.10;99.90
12254;DHT22;6189;52.526;13.390;2022-12-11T14:50:48;1.20;99.90
12254;DHT22;6189;52.526;13.390;2022-12-11T14:53:35;1.20;99.90
12254;DHT22;6189;52.526;13.390;2022-12-11T14:56:25;1.10;99.90
12254;DHT22;6189;52.526;13.390;2022-12-11T14:59:18;1.10;99.90
12254;DHT22;6189;52.526;13.390;2022-12-11T15:02:21;1.10;99.90
12254;DHT22;6189;52.526;13.390;2022-12-11T15:05:14;1.00;99.90
12254;DHT22;6189;52.526;13.390;2022-12-11T15:08:14;1.10;99.90
